createdAt,value
2023-05-10T00:00:34.360Z,0.08
2023-05-10T00:03:37.174Z,0.13
2023-05-10T00:06:40.132Z,0.10
2023-05-10T00:09:42.849Z,0.10
2023-05-10T00:12:45.612Z,0.17
2023-05-10T00:15:49.694Z,0.10
2023-05-10T00:18:52.481Z,0.20
2023-05-10T00:21:55.183Z,0.13
2023-05-10T00:24:57.808Z,0.00
2023-05-10T00:28:02.271Z,0.00
2023-05-10T00:31:06.476Z,0.15
2023-05-10T00:34:09.239Z,0.10
2023-05-10T00:37:11.928Z,0.10
2023-05-10T00:40:15.454Z,0.05
2023-05-10T00:43:18.471Z,0.10
2023-05-10T00:46:22.957Z,0.10
2023-05-10T00:49:25.724Z,0.40
2023-05-10T00:52:28.627Z,0.10
2023-05-10T00:55:31.972Z,0.20
2023-05-10T00:58:34.785Z,0.10
2023-05-10T01:01:39.929Z,0.10
2023-05-10T01:04:42.886Z,0.32
2023-05-10T01:07:45.681Z,0.10
2023-05-10T01:10:50.110Z,0.08
2023-05-10T01:13:57.406Z,0.10
2023-05-10T01:17:03.221Z,0.15
2023-05-10T01:20:09.025Z,0.30
2023-05-10T01:23:30.611Z,0.10
2023-05-10T01:27:03.999Z,0.20
2023-05-10T01:30:37.527Z,0.20
2023-05-10T01:33:48.327Z,0.25
2023-05-10T01:36:55.481Z,0.10
2023-05-10T01:40:04.921Z,0.47
2023-05-10T01:43:28.483Z,0.30
2023-05-10T01:46:36.904Z,0.30
2023-05-10T01:49:45.424Z,0.20
2023-05-10T01:52:53.998Z,0.25
2023-05-10T01:55:58.271Z,0.25
2023-05-10T01:59:03.036Z,0.38
2023-05-10T02:02:07.580Z,0.40
2023-05-10T02:05:14.887Z,0.30
2023-05-10T02:08:20.225Z,0.10
2023-05-10T02:11:23.737Z,0.30
2023-05-10T02:14:28.500Z,0.32
2023-05-10T02:17:33.774Z,0.30
2023-05-10T02:20:39.484Z,0.40
2023-05-10T02:23:42.624Z,0.30
2023-05-10T02:26:47.298Z,0.20
2023-05-10T02:29:51.959Z,0.40
2023-05-10T02:32:55.422Z,0.30
2023-05-10T02:36:00.299Z,0.30
2023-05-10T02:39:04.390Z,0.35
2023-05-10T02:42:07.892Z,0.28
2023-05-10T02:45:14.606Z,0.30
2023-05-10T02:48:18.057Z,0.40
2023-05-10T02:51:27.132Z,0.32
2023-05-10T02:54:34.536Z,0.40
2023-05-10T02:57:42.949Z,0.75
2023-05-10T03:00:46.226Z,0.50
2023-05-10T03:03:48.950Z,0.40
2023-05-10T03:06:53.116Z,0.40
2023-05-10T03:09:55.859Z,0.60
2023-05-10T03:13:08.086Z,1.30
2023-05-10T03:16:16.734Z,1.05
2023-05-10T03:19:26.263Z,1.00
2023-05-10T03:22:34.274Z,1.15
2023-05-10T03:25:37.216Z,1.10
2023-05-10T03:28:41.539Z,1.17
2023-05-10T03:31:44.564Z,1.30
2023-05-10T03:34:47.267Z,1.20
2023-05-10T03:37:51.494Z,1.00
2023-05-10T03:40:54.295Z,2.33
2023-05-10T03:43:56.972Z,1.60
2023-05-10T03:46:59.731Z,1.77
2023-05-10T03:50:03.426Z,1.65
2023-05-10T03:53:07.696Z,1.77
2023-05-10T03:56:10.418Z,1.63
2023-05-10T03:59:13.153Z,1.20
2023-05-10T04:02:16.091Z,1.25
2023-05-10T04:05:18.839Z,1.08
2023-05-10T04:08:23.001Z,0.93
2023-05-10T04:11:25.805Z,0.93
2023-05-10T04:14:28.636Z,1.08
2023-05-10T04:17:32.216Z,0.90
2023-05-10T04:20:35.237Z,1.02
2023-05-10T04:23:39.291Z,0.93
2023-05-10T04:26:41.966Z,0.93
2023-05-10T04:29:45.305Z,0.75
2023-05-10T04:32:48.082Z,0.70
2023-05-10T04:35:50.849Z,0.60
2023-05-10T04:38:54.904Z,0.60
2023-05-10T04:41:57.764Z,0.77
2023-05-10T04:45:00.380Z,0.60
2023-05-10T04:48:03.184Z,0.50
2023-05-10T04:51:07.425Z,0.65
2023-05-10T04:54:11.462Z,0.70
2023-05-10T04:57:14.188Z,0.50
2023-05-10T05:00:18.155Z,0.57
2023-05-10T05:03:21.097Z,0.30
2023-05-10T05:06:25.708Z,0.57
2023-05-10T05:09:29.810Z,1.35
2023-05-10T05:12:32.778Z,0.88
2023-05-10T05:15:35.614Z,0.60
2023-05-10T05:18:38.408Z,0.52
2023-05-10T05:21:41.974Z,0.80
2023-05-10T05:24:46.412Z,0.70
2023-05-10T05:27:49.204Z,0.60
2023-05-10T05:30:51.894Z,0.80
2023-05-10T05:33:54.589Z,0.70
2023-05-10T05:36:57.350Z,0.80
2023-05-10T05:40:04.058Z,0.68
2023-05-10T05:43:06.768Z,0.57
2023-05-10T05:46:09.438Z,0.55
2023-05-10T05:49:13.224Z,0.68
2023-05-10T05:52:15.963Z,0.55
2023-05-10T05:55:20.167Z,0.80
2023-05-10T05:58:23.124Z,0.40
2023-05-10T06:01:25.794Z,0.65
2023-05-10T06:04:28.765Z,0.68
2023-05-10T06:07:31.507Z,0.85
2023-05-10T06:10:35.582Z,0.70
2023-05-10T06:13:38.305Z,0.85
2023-05-10T06:16:41.551Z,0.80
2023-05-10T06:19:44.323Z,0.90
2023-05-10T06:22:47.038Z,0.80
2023-05-10T06:25:51.135Z,0.98
2023-05-10T06:28:53.805Z,0.77
2023-05-10T06:31:56.561Z,0.77
2023-05-10T06:34:59.359Z,0.70
2023-05-10T06:38:02.035Z,0.90
2023-05-10T06:41:06.471Z,0.90
2023-05-10T06:44:09.515Z,0.63
2023-05-10T06:47:12.287Z,0.75
2023-05-10T06:50:15.016Z,0.70
2023-05-10T06:53:17.812Z,0.70
2023-05-10T06:56:22.435Z,0.90
2023-05-10T06:59:25.456Z,0.50
2023-05-10T07:02:28.401Z,0.55
2023-05-10T07:05:31.328Z,0.80
2023-05-10T07:08:34.319Z,0.68
2023-05-10T07:11:38.724Z,0.50
2023-05-10T07:14:41.550Z,0.70
2023-05-10T07:17:45.898Z,0.80
2023-05-10T07:20:48.919Z,0.70
2023-05-10T07:23:52.462Z,0.65
2023-05-10T07:26:56.576Z,0.57
2023-05-10T07:29:59.744Z,0.50
2023-05-10T07:33:02.477Z,0.57
2023-05-10T07:36:05.292Z,0.68
2023-05-10T07:39:08.413Z,0.73
2023-05-10T07:42:12.668Z,0.50
2023-05-10T07:45:16.091Z,0.60
2023-05-10T07:48:19.157Z,0.52
2023-05-10T07:51:22.099Z,0.55
2023-05-10T07:54:24.945Z,0.50
2023-05-10T07:57:29.171Z,0.40
2023-05-10T08:00:31.958Z,0.40
2023-05-10T08:03:34.921Z,0.57
2023-05-10T08:06:37.764Z,0.57
2023-05-10T08:09:40.570Z,0.60
2023-05-10T08:12:44.570Z,0.50
2023-05-10T08:15:47.832Z,0.65
2023-05-10T08:18:51.729Z,0.60
2023-05-10T08:21:56.382Z,0.60
2023-05-10T08:24:59.156Z,0.50
2023-05-10T08:28:03.215Z,0.40
2023-05-10T08:31:07.423Z,0.30
2023-05-10T08:34:10.311Z,0.30
2023-05-10T08:37:14.454Z,0.30
2023-05-10T08:40:17.576Z,0.20
2023-05-10T08:43:21.753Z,0.50
2023-05-10T08:46:25.274Z,0.20
2023-05-10T08:49:29.469Z,0.47
2023-05-10T08:52:34.943Z,0.40
2023-05-10T08:55:39.579Z,0.30
2023-05-10T08:58:43.911Z,0.40
2023-05-10T09:01:49.254Z,0.10
2023-05-10T09:04:52.680Z,0.20
2023-05-10T09:07:55.682Z,0.30
2023-05-10T09:10:58.626Z,0.40
2023-05-10T09:14:03.597Z,0.28
2023-05-10T09:17:06.895Z,0.20
2023-05-10T09:20:10.189Z,0.20
2023-05-10T09:23:13.141Z,0.35
2023-05-10T09:26:15.819Z,0.10
2023-05-10T09:29:20.590Z,0.30
2023-05-10T09:32:23.346Z,0.28
2023-05-10T09:35:29.778Z,0.17
2023-05-10T09:38:47.443Z,0.20
2023-05-10T09:41:50.398Z,0.30
2023-05-10T09:44:54.439Z,0.30
2023-05-10T09:47:57.589Z,0.20
2023-05-10T09:51:00.461Z,0.28
2023-05-10T09:54:13.828Z,0.40
2023-05-10T09:57:22.975Z,0.40
2023-05-10T10:00:28.291Z,0.30
2023-05-10T10:03:32.030Z,0.47
2023-05-10T10:06:39.432Z,0.30
2023-05-10T10:09:42.459Z,0.30
2023-05-10T10:12:46.043Z,0.40
2023-05-10T10:15:52.225Z,0.30
2023-05-10T10:18:55.254Z,0.10
2023-05-10T10:21:58.237Z,0.30
2023-05-10T10:25:01.680Z,0.32
2023-05-10T10:28:18.383Z,0.22
2023-05-10T10:31:31.016Z,0.22
2023-05-10T10:34:34.409Z,0.52
2023-05-10T10:37:46.245Z,0.40
2023-05-10T10:40:49.485Z,0.20
2023-05-10T10:44:35.871Z,0.20
2023-05-10T10:47:38.931Z,0.20
2023-05-10T10:50:47.924Z,0.25
2023-05-10T10:53:50.790Z,0.20
2023-05-10T10:57:14.882Z,0.10
2023-05-10T11:00:38.129Z,0.38
2023-05-10T11:03:41.072Z,0.25
2023-05-10T11:06:44.429Z,0.40
2023-05-10T11:09:48.741Z,0.20
2023-05-10T11:12:56.547Z,0.20
2023-05-10T11:16:11.352Z,0.30
2023-05-10T11:19:15.521Z,0.30
2023-05-10T11:22:19.203Z,0.28
2023-05-10T11:25:22.357Z,0.50
2023-05-10T11:28:25.322Z,0.47
2023-05-10T11:31:30.891Z,0.30
2023-05-10T11:34:34.991Z,0.40
2023-05-10T11:37:38.254Z,0.40
2023-05-10T11:40:42.664Z,0.43
2023-05-10T11:43:49.981Z,0.30
2023-05-10T11:46:54.143Z,0.30
2023-05-10T11:49:56.942Z,0.40
2023-05-10T11:53:00.664Z,0.40
2023-05-10T11:56:07.402Z,0.30
2023-05-10T11:59:10.368Z,0.40
2023-05-10T12:02:15.276Z,0.50
2023-05-10T12:05:18.827Z,0.40
2023-05-10T12:08:24.062Z,0.55
2023-05-10T12:11:28.081Z,0.38
2023-05-10T12:14:34.286Z,0.65
2023-05-10T12:17:40.747Z,0.40
2023-05-10T12:20:45.281Z,0.60
2023-05-10T12:23:49.054Z,0.40
2023-05-10T12:26:52.455Z,0.40
2023-05-10T12:29:55.743Z,0.80
2023-05-10T12:33:04.491Z,0.80
2023-05-10T12:36:07.966Z,0.30
2023-05-10T12:39:11.166Z,0.17
2023-05-10T12:42:14.166Z,0.35
2023-05-10T12:45:16.962Z,0.40
2023-05-10T12:48:21.487Z,0.60
2023-05-10T12:51:24.262Z,0.30
2023-05-10T12:54:27.031Z,0.40
2023-05-10T12:57:29.858Z,0.35
2023-05-10T13:00:32.572Z,0.40
2023-05-10T13:03:36.666Z,0.98
2023-05-10T13:06:39.385Z,0.40
2023-05-10T13:09:42.151Z,0.30
2023-05-10T13:12:44.861Z,0.50
2023-05-10T13:15:47.546Z,0.50
2023-05-10T13:18:51.846Z,0.40
2023-05-10T13:21:54.605Z,0.45
2023-05-10T13:24:57.308Z,0.60
2023-05-10T13:28:00.082Z,0.65
2023-05-10T13:31:02.830Z,0.28
2023-05-10T13:34:07.386Z,0.40
2023-05-10T13:37:10.353Z,0.50
2023-05-10T13:40:13.408Z,0.30
2023-05-10T13:43:16.286Z,0.70
2023-05-10T13:46:19.793Z,0.60
2023-05-10T13:49:23.965Z,0.30
2023-05-10T13:52:26.739Z,0.40
2023-05-10T13:55:29.704Z,0.50
2023-05-10T13:58:32.456Z,0.38
2023-05-10T14:01:35.336Z,0.43
2023-05-10T14:04:39.383Z,0.30
2023-05-10T14:07:42.169Z,0.30
2023-05-10T14:10:44.938Z,0.40
2023-05-10T14:13:47.857Z,0.38
2023-05-10T14:16:50.593Z,0.85
2023-05-10T14:19:55.001Z,0.40
2023-05-10T14:22:57.742Z,0.43
2023-05-10T14:26:00.581Z,0.25
2023-05-10T14:29:03.498Z,0.40
2023-05-10T14:32:06.793Z,0.30
2023-05-10T14:35:12.961Z,0.10
2023-05-10T14:38:16.733Z,0.40
2023-05-10T14:41:19.844Z,0.30
2023-05-10T14:44:22.620Z,0.40
2023-05-10T14:47:25.546Z,0.40
2023-05-10T14:50:36.054Z,0.20
2023-05-10T14:53:39.552Z,0.38
2023-05-10T14:56:42.730Z,0.40
2023-05-10T14:59:45.453Z,0.50
2023-05-10T15:02:49.225Z,0.40
2023-05-10T15:05:54.127Z,0.55
2023-05-10T15:08:56.957Z,0.60
2023-05-10T15:11:59.699Z,0.32
2023-05-10T15:15:02.417Z,0.50
2023-05-10T15:18:05.557Z,0.20
2023-05-10T15:21:09.940Z,0.20
2023-05-10T15:24:12.639Z,0.30
2023-05-10T15:27:15.325Z,0.47
2023-05-10T15:30:18.012Z,0.30
2023-05-10T15:33:20.641Z,0.47
2023-05-10T15:36:24.699Z,0.20
2023-05-10T15:39:27.379Z,0.30
2023-05-10T15:42:30.853Z,0.40
2023-05-10T15:45:35.234Z,0.40
2023-05-10T15:48:40.234Z,0.50
2023-05-10T15:51:44.236Z,0.30
2023-05-10T15:54:47.125Z,0.20
2023-05-10T15:57:50.372Z,0.35
2023-05-10T16:00:53.110Z,0.20
2023-05-10T16:03:55.923Z,0.22
2023-05-10T16:06:59.946Z,0.20
2023-05-10T16:10:04.086Z,0.30
2023-05-10T16:13:06.959Z,0.30
2023-05-10T16:16:09.847Z,0.40
2023-05-10T16:19:12.668Z,0.20
2023-05-10T16:22:16.997Z,0.30
2023-05-10T16:25:20.047Z,0.40
2023-05-10T16:28:22.941Z,0.30
2023-05-10T16:31:25.802Z,0.30
2023-05-10T16:34:28.793Z,0.17
2023-05-10T16:37:32.993Z,0.30
2023-05-10T16:40:35.755Z,0.25
2023-05-10T16:43:38.445Z,0.20
2023-05-10T16:46:41.121Z,0.22
2023-05-10T16:49:43.797Z,0.40
2023-05-10T16:52:47.946Z,0.30
2023-05-10T16:55:51.050Z,0.32
2023-05-10T16:58:54.055Z,0.30
2023-05-10T17:01:56.804Z,0.20
2023-05-10T17:04:59.603Z,0.30
2023-05-10T17:08:03.758Z,0.25
2023-05-10T17:11:06.591Z,0.20
2023-05-10T17:14:10.161Z,0.30
2023-05-10T17:17:12.985Z,0.32
2023-05-10T17:20:15.642Z,0.43
2023-05-10T17:23:19.714Z,0.35
2023-05-10T17:26:22.410Z,0.30
2023-05-10T17:29:25.048Z,0.30
2023-05-10T17:32:27.837Z,0.20
2023-05-10T17:35:31.545Z,0.50
2023-05-10T17:38:35.872Z,0.30
2023-05-10T17:41:38.549Z,0.45
2023-05-10T17:44:41.346Z,0.22
2023-05-10T17:47:44.156Z,0.15
2023-05-10T17:50:47.013Z,0.20
2023-05-10T17:53:51.048Z,0.30
2023-05-10T17:56:53.836Z,0.30
2023-05-10T17:59:56.596Z,0.40
2023-05-10T18:02:59.453Z,0.40
2023-05-10T18:06:02.359Z,0.30
2023-05-10T18:09:07.260Z,0.20
2023-05-10T18:12:10.036Z,0.30
2023-05-10T18:15:12.730Z,0.20
2023-05-10T18:18:15.802Z,0.25
2023-05-10T18:21:18.851Z,0.50
2023-05-10T18:24:30.456Z,0.30
2023-05-10T18:27:40.196Z,0.40
2023-05-10T18:30:42.959Z,0.40
2023-05-10T18:33:45.960Z,0.47
2023-05-10T18:36:48.775Z,0.30
2023-05-10T18:39:53.261Z,0.30
2023-05-10T18:42:56.091Z,0.50
2023-05-10T18:45:58.769Z,0.63
2023-05-10T18:49:02.590Z,0.32
2023-05-10T18:52:05.243Z,0.60
2023-05-10T18:55:10.195Z,0.32
2023-05-10T18:58:12.802Z,0.20
2023-05-10T19:01:15.519Z,0.40
2023-05-10T19:04:18.187Z,0.43
2023-05-10T19:07:20.830Z,0.40
2023-05-10T19:10:25.069Z,0.57
2023-05-10T19:13:28.854Z,0.30
2023-05-10T19:16:31.567Z,0.40
2023-05-10T19:19:35.319Z,0.40
2023-05-10T19:22:54.326Z,0.30
2023-05-10T19:26:02.420Z,0.40
2023-05-10T19:29:05.045Z,0.30
2023-05-10T19:32:07.642Z,0.30
2023-05-10T19:35:13.188Z,0.30
2023-05-10T19:38:16.308Z,0.20
2023-05-10T19:41:20.308Z,0.17
2023-05-10T19:44:23.088Z,0.50
2023-05-10T19:47:26.247Z,0.38
2023-05-10T19:50:28.914Z,0.40
2023-05-10T19:53:32.309Z,0.40
2023-05-10T19:56:36.407Z,0.50
2023-05-10T19:59:39.018Z,0.40
2023-05-10T20:02:41.605Z,0.63
2023-05-10T20:05:44.267Z,0.40
2023-05-10T20:08:46.917Z,0.50
2023-05-10T20:11:51.242Z,0.40
2023-05-10T20:14:53.869Z,0.30
2023-05-10T20:17:56.656Z,0.55
2023-05-10T20:21:00.660Z,0.50
2023-05-10T20:24:03.339Z,0.40
2023-05-10T20:27:07.605Z,0.70
2023-05-10T20:30:11.293Z,0.80
2023-05-10T20:33:15.539Z,0.40
2023-05-10T20:36:18.191Z,0.50
2023-05-10T20:39:20.759Z,0.50
2023-05-10T20:42:24.929Z,0.52
2023-05-10T20:45:27.593Z,0.47
2023-05-10T20:48:30.260Z,0.50
2023-05-10T20:51:33.335Z,0.73
2023-05-10T20:54:35.984Z,0.50
2023-05-10T20:57:40.115Z,0.57
2023-05-10T21:00:42.702Z,0.50
2023-05-10T21:03:45.423Z,0.43
2023-05-10T21:06:48.015Z,0.88
2023-05-10T21:09:50.630Z,0.70
2023-05-10T21:12:54.872Z,0.60
2023-05-10T21:15:58.206Z,0.50
2023-05-10T21:19:00.923Z,0.43
2023-05-10T21:22:03.648Z,0.40
2023-05-10T21:25:07.242Z,0.40
2023-05-10T21:28:11.513Z,0.50
2023-05-10T21:31:14.199Z,0.45
2023-05-10T21:34:17.918Z,0.50
2023-05-10T21:37:20.521Z,0.55
2023-05-10T21:40:23.957Z,0.45
2023-05-10T21:43:27.919Z,0.40
2023-05-10T21:46:30.957Z,0.30
2023-05-10T21:49:33.580Z,0.60
2023-05-10T21:52:36.243Z,0.35
2023-05-10T21:55:38.917Z,0.50
2023-05-10T21:58:42.929Z,0.60
2023-05-10T22:01:45.630Z,0.35
2023-05-10T22:04:48.451Z,0.40
2023-05-10T22:07:51.124Z,0.32
2023-05-10T22:10:53.728Z,0.30
2023-05-10T22:13:57.719Z,0.55
2023-05-10T22:17:00.439Z,0.43
2023-05-10T22:20:03.681Z,0.60
2023-05-10T22:23:06.654Z,0.50
2023-05-10T22:26:09.430Z,0.77
2023-05-10T22:29:13.461Z,0.30
2023-05-10T22:32:16.081Z,0.50
2023-05-10T22:35:18.687Z,0.40
2023-05-10T22:38:21.493Z,0.40
2023-05-10T22:41:24.090Z,0.63
2023-05-10T22:44:28.118Z,0.30
2023-05-10T22:47:30.815Z,0.40
2023-05-10T22:50:33.437Z,0.43
2023-05-10T22:53:36.100Z,0.45
2023-05-10T22:56:38.702Z,0.38
2023-05-10T22:59:43.353Z,0.30
2023-05-10T23:02:46.097Z,0.40
2023-05-10T23:05:48.776Z,0.50
2023-05-10T23:08:51.996Z,0.57
2023-05-10T23:11:54.759Z,0.60
2023-05-10T23:14:58.796Z,0.40
2023-05-10T23:18:01.551Z,0.40
2023-05-10T23:21:04.236Z,0.55
2023-05-10T23:24:08.443Z,0.50
2023-05-10T23:27:11.317Z,0.40
2023-05-10T23:30:15.650Z,0.40
2023-05-10T23:33:18.395Z,0.40
2023-05-10T23:36:21.028Z,0.43
2023-05-10T23:39:23.671Z,0.43
2023-05-10T23:42:26.295Z,0.43
2023-05-10T23:45:30.479Z,0.60
2023-05-10T23:48:33.103Z,0.40
2023-05-10T23:51:35.706Z,0.47
2023-05-10T23:54:38.329Z,0.60
2023-05-10T23:57:40.928Z,0.40
